createdAt,value
2019-04-11T00:00:23.595Z,5.87
2019-04-11T00:02:53.167Z,7.67
2019-04-11T00:05:21.758Z,8.70
2019-04-11T00:07:50.357Z,7.40
2019-04-11T00:10:19.000Z,8.30
2019-04-11T00:12:48.518Z,7.50
2019-04-11T00:15:16.821Z,7.40
2019-04-11T00:17:46.008Z,9.10
2019-04-11T00:20:14.626Z,9.87
2019-04-11T00:22:43.740Z,6.30
2019-04-11T00:25:13.508Z,7.20
2019-04-11T00:27:43.362Z,7.83
2019-04-11T00:30:12.334Z,8.07
2019-04-11T00:32:41.445Z,7.67
2019-04-11T00:35:11.128Z,8.33
2019-04-11T00:37:39.765Z,7.90
2019-04-11T00:40:08.967Z,6.30
2019-04-11T00:42:38.749Z,7.67
2019-04-11T00:45:07.692Z,6.87
2019-04-11T00:47:35.962Z,7.20
2019-04-11T00:50:07.330Z,7.53
2019-04-11T00:52:37.005Z,8.17
2019-04-11T00:55:07.066Z,8.70
2019-04-11T00:57:36.986Z,7.80
2019-04-11T01:00:07.514Z,6.27
2019-04-11T01:02:36.105Z,7.77
2019-04-11T01:05:06.122Z,6.47
2019-04-11T01:07:35.310Z,6.90
2019-04-11T01:10:06.660Z,7.10
2019-04-11T01:12:35.029Z,6.03
2019-04-11T01:15:05.033Z,8.47
2019-04-11T01:17:33.679Z,7.43
2019-04-11T01:20:08.349Z,6.37
2019-04-11T01:22:36.875Z,5.60
2019-04-11T01:25:08.405Z,7.43
2019-04-11T01:27:38.412Z,8.97
2019-04-11T01:30:10.205Z,9.23
2019-04-11T01:32:38.838Z,8.63
2019-04-11T01:35:08.859Z,5.67
2019-04-11T01:37:37.979Z,5.87
2019-04-11T01:40:07.781Z,5.90
2019-04-11T01:42:37.520Z,6.10
2019-04-11T01:45:07.470Z,6.03
2019-04-11T01:47:40.557Z,8.90
2019-04-11T01:50:10.560Z,8.90
2019-04-11T01:52:39.353Z,6.60
2019-04-11T01:55:08.337Z,7.93
2019-04-11T01:57:37.918Z,4.90
2019-04-11T02:00:08.052Z,5.70
2019-04-11T02:02:39.533Z,7.03
2019-04-11T02:05:10.677Z,7.73
2019-04-11T02:07:39.194Z,6.73
2019-04-11T02:10:08.538Z,6.73
2019-04-11T02:12:37.416Z,7.63
2019-04-11T02:15:08.253Z,7.63
2019-04-11T02:17:37.074Z,5.47
2019-04-11T02:20:07.611Z,5.33
2019-04-11T02:22:38.250Z,6.60
2019-04-11T02:25:09.502Z,6.37
2019-04-11T02:27:40.146Z,5.30
2019-04-11T02:30:11.304Z,7.47
2019-04-11T02:32:42.242Z,5.80
2019-04-11T02:35:11.209Z,6.20
2019-04-11T02:37:42.045Z,6.43
2019-04-11T02:40:11.276Z,5.43
2019-04-11T02:42:41.233Z,5.83
2019-04-11T02:45:24.433Z,5.63
2019-04-11T02:47:43.930Z,5.23
2019-04-11T02:50:14.856Z,6.37
2019-04-11T02:52:42.773Z,4.50
2019-04-11T02:55:14.356Z,5.30
2019-04-11T02:57:43.205Z,5.40
2019-04-11T03:00:13.170Z,5.10
2019-04-11T03:02:42.547Z,5.90
2019-04-11T03:05:13.705Z,6.87
2019-04-11T03:07:42.664Z,4.97
2019-04-11T03:10:12.303Z,4.93
2019-04-11T03:12:43.325Z,6.03
2019-04-11T03:15:27.532Z,7.00
2019-04-11T03:17:44.586Z,5.67
2019-04-11T03:20:21.776Z,6.07
2019-04-11T03:22:42.539Z,10.30
2019-04-11T03:25:11.661Z,6.03
2019-04-11T03:27:40.938Z,5.93
2019-04-11T03:30:15.032Z,4.87
2019-04-11T03:38:04.097Z,5.50
2019-04-11T03:40:33.520Z,5.60
2019-04-11T03:42:54.343Z,5.33
2019-04-11T03:45:34.761Z,5.83
2019-04-11T03:47:57.615Z,4.60
2019-04-11T03:50:18.876Z,6.03
2019-04-11T03:52:45.016Z,5.67
2019-04-11T03:55:15.286Z,5.90
2019-04-11T03:57:44.629Z,4.97
2019-04-11T04:00:15.385Z,4.90
2019-04-11T04:02:44.449Z,5.87
2019-04-11T04:05:13.248Z,5.63
2019-04-11T04:07:42.258Z,5.17
2019-04-11T04:10:13.105Z,5.70
2019-04-11T04:12:40.874Z,5.30
2019-04-11T04:15:31.358Z,5.43
2019-04-11T04:17:57.190Z,5.97
2019-04-11T04:20:37.015Z,5.90
2019-04-11T04:23:09.584Z,6.63
2019-04-11T04:25:39.183Z,6.13
2019-04-11T04:28:10.124Z,4.70
2019-04-11T04:30:40.545Z,5.83
2019-04-11T04:33:10.321Z,5.30
2019-04-11T04:35:40.668Z,6.67
2019-04-11T04:38:11.005Z,6.50
2019-04-11T04:40:51.011Z,6.33
2019-04-11T04:43:11.857Z,6.43
2019-04-11T04:45:57.809Z,7.43
2019-04-11T04:48:12.426Z,6.90
2019-04-11T04:50:42.100Z,6.93
2019-04-11T04:53:11.170Z,7.43
2019-04-11T04:55:41.169Z,6.43
2019-04-11T04:58:09.924Z,6.00
2019-04-11T05:00:39.727Z,9.33
2019-04-11T05:03:09.864Z,5.77
2019-04-11T05:05:38.948Z,6.37
2019-04-11T05:08:08.355Z,6.27
2019-04-11T05:10:38.157Z,7.07
2019-04-11T05:13:07.765Z,8.47
2019-04-11T05:15:36.650Z,7.63
2019-04-11T05:18:06.146Z,13.23
2019-04-11T05:20:34.910Z,14.53
2019-04-11T05:23:04.336Z,18.10
2019-04-11T05:25:32.999Z,21.43
2019-04-11T05:28:02.241Z,20.07
2019-04-11T05:30:31.523Z,24.40
2019-04-11T05:33:00.157Z,22.03
2019-04-11T05:35:29.809Z,14.83
2019-04-11T05:37:58.470Z,8.90
2019-04-11T05:40:28.116Z,8.33
2019-04-11T05:42:57.615Z,9.90
2019-04-11T05:45:26.536Z,9.57
2019-04-11T05:47:57.089Z,10.60
2019-04-11T05:50:28.446Z,8.90
2019-04-11T05:53:01.158Z,8.53
2019-04-11T05:55:30.172Z,7.60
2019-04-11T05:58:00.843Z,7.43
2019-04-11T06:00:46.611Z,7.00
2019-04-11T06:03:15.520Z,6.17
2019-04-11T06:06:02.117Z,7.43
2019-04-11T06:08:32.328Z,6.20
2019-04-11T06:11:04.321Z,8.60
2019-04-11T06:13:34.538Z,6.83
2019-04-11T06:16:04.491Z,6.20
2019-04-11T06:18:45.779Z,8.10
2019-04-11T06:21:15.966Z,7.30
2019-04-11T06:23:49.735Z,7.63
2019-04-11T06:26:36.587Z,7.17
2019-04-11T06:29:16.338Z,8.03
2019-04-11T06:31:57.242Z,7.37
2019-04-11T06:34:27.679Z,7.03
2019-04-11T06:37:13.973Z,6.10
2019-04-11T06:39:57.840Z,6.77
2019-04-11T06:42:47.571Z,7.07
2019-04-11T06:45:33.826Z,5.97
2019-04-11T06:48:13.579Z,6.80
2019-04-11T06:50:49.650Z,6.97
2019-04-11T06:53:19.219Z,6.80
2019-04-11T06:55:49.446Z,7.00
2019-04-11T06:58:19.700Z,7.10
2019-04-11T07:00:50.038Z,7.87
2019-04-11T07:03:25.524Z,7.73
2019-04-11T07:05:51.063Z,8.40
2019-04-11T07:08:22.279Z,8.87
2019-04-11T07:10:53.226Z,7.07
2019-04-11T07:13:39.313Z,7.58
2019-04-11T07:16:09.039Z,6.08
2019-04-11T07:18:46.393Z,6.47
2019-04-11T07:21:15.108Z,6.67
2019-04-11T07:24:01.758Z,5.78
2019-04-11T07:26:37.906Z,5.45
2019-04-11T07:29:25.684Z,5.78
2019-04-11T07:32:02.658Z,6.50
2019-04-11T07:34:47.997Z,7.70
2019-04-11T07:37:32.792Z,6.20
2019-04-11T07:40:15.708Z,5.80
2019-04-11T07:43:00.848Z,6.25
2019-04-11T07:45:34.270Z,6.92
2019-04-11T07:48:13.434Z,5.92
2019-04-11T07:50:42.305Z,6.25
2019-04-11T07:53:12.870Z,6.40
2019-04-11T07:55:42.309Z,5.90
2019-04-11T07:58:21.505Z,8.13
2019-04-11T08:00:55.961Z,6.30
2019-04-11T08:03:42.717Z,7.78
2019-04-11T08:06:13.337Z,6.37
2019-04-11T08:09:00.376Z,7.22
2019-04-11T08:11:31.725Z,6.50
2019-04-11T08:14:18.363Z,6.78
2019-04-11T08:17:01.693Z,7.30
2019-04-11T08:19:32.994Z,7.23
2019-04-11T08:22:12.646Z,7.07
2019-04-11T08:24:58.716Z,7.20
2019-04-11T08:27:28.641Z,9.20
2019-04-11T08:30:02.665Z,8.77
2019-04-11T08:32:42.114Z,10.47
2019-04-11T08:35:28.859Z,9.33
2019-04-11T08:38:02.776Z,8.03
2019-04-11T08:40:33.606Z,8.43
2019-04-11T08:43:04.682Z,9.17
2019-04-11T08:45:34.933Z,8.73
2019-04-11T08:48:04.880Z,7.57
2019-04-11T08:50:34.782Z,9.93
2019-04-11T08:53:17.032Z,8.60
2019-04-11T08:55:53.643Z,7.80
2019-04-11T08:58:36.394Z,8.00
2019-04-11T09:01:07.501Z,8.90
2019-04-11T09:03:59.300Z,10.70
2019-04-11T09:06:18.878Z,8.33
2019-04-11T09:08:49.290Z,8.90
2019-04-11T09:11:22.559Z,7.50
2019-04-11T09:14:08.902Z,8.40
2019-04-11T09:16:56.825Z,11.37
2019-04-11T09:19:27.275Z,7.60
2019-04-11T09:22:09.578Z,8.30
2019-04-11T09:24:43.133Z,8.90
2019-04-11T09:27:31.106Z,9.50
2019-04-11T09:30:04.481Z,8.10
2019-04-11T09:32:37.157Z,9.43
2019-04-11T09:35:08.395Z,8.47
2019-04-11T09:37:37.802Z,8.33
2019-04-11T09:40:26.330Z,10.67
2019-04-11T09:42:59.628Z,9.43
2019-04-11T09:45:29.875Z,10.77
2019-04-11T09:48:18.274Z,9.83
2019-04-11T09:51:00.857Z,8.57
2019-04-11T09:53:30.330Z,10.23
2019-04-11T09:56:00.622Z,13.40
2019-04-11T09:58:30.212Z,10.20
2019-04-11T10:01:10.226Z,12.03
2019-04-11T10:03:38.898Z,9.33
2019-04-11T10:06:09.417Z,12.50
2019-04-11T10:08:39.737Z,8.80
2019-04-11T10:11:10.547Z,10.23
2019-04-11T10:13:53.325Z,8.53
2019-04-11T10:16:24.172Z,8.73
2019-04-11T10:19:07.568Z,9.40
2019-04-11T10:21:54.362Z,12.10
2019-04-11T10:24:36.799Z,9.83
2019-04-11T10:27:14.261Z,8.20
2019-04-11T10:29:44.575Z,11.47
2019-04-11T10:32:25.533Z,12.30
2019-04-11T10:35:05.981Z,14.37
2019-04-11T10:37:36.394Z,11.13
2019-04-11T10:40:08.147Z,10.83
2019-04-11T10:42:36.867Z,10.27
2019-04-11T10:45:12.194Z,9.87
2019-04-11T10:47:40.927Z,10.43
2019-04-11T10:50:15.363Z,10.93
2019-04-11T10:52:48.893Z,11.33
2019-04-11T10:55:19.734Z,9.53
2019-04-11T10:58:06.769Z,11.87
2019-04-11T11:00:53.617Z,10.87
2019-04-11T11:03:27.936Z,9.97
2019-04-11T11:06:05.403Z,9.67
2019-04-11T11:08:45.750Z,9.90
2019-04-11T11:11:17.491Z,10.53
2019-04-11T11:13:48.160Z,11.03
2019-04-11T11:16:18.405Z,12.30
2019-04-11T11:19:20.898Z,11.90
2019-04-11T11:21:24.969Z,10.47
2019-04-11T11:24:05.449Z,12.20
2019-04-11T11:26:33.665Z,17.57
2019-04-11T11:29:20.619Z,32.57
2019-04-11T11:31:54.558Z,24.63
2019-04-11T11:34:25.368Z,15.17
2019-04-11T11:36:56.724Z,11.40
2019-04-11T11:39:29.529Z,11.43
2019-04-11T11:42:02.420Z,11.37
2019-04-11T11:44:32.974Z,11.10
2019-04-11T11:47:19.941Z,10.43
2019-04-11T11:49:57.054Z,11.70
2019-04-11T11:52:34.556Z,11.13
2019-04-11T11:55:06.106Z,13.03
2019-04-11T11:57:37.089Z,14.23
2019-04-11T12:00:09.175Z,10.40
2019-04-11T12:02:42.390Z,11.70
2019-04-11T12:05:15.912Z,12.23
2019-04-11T12:07:47.376Z,12.83
2019-04-11T12:10:35.634Z,12.87
2019-04-11T12:13:11.617Z,9.00
2019-04-11T12:15:46.891Z,13.53
2019-04-11T12:18:22.813Z,11.97
2019-04-11T12:20:55.556Z,11.47
2019-04-11T12:23:42.811Z,11.87
2019-04-11T12:26:03.195Z,10.27
2019-04-11T12:28:33.981Z,9.30
2019-04-11T12:31:05.437Z,10.33
2019-04-11T12:33:52.144Z,13.13
2019-04-11T12:36:22.994Z,10.13
2019-04-11T12:38:59.350Z,10.03
2019-04-11T12:41:29.509Z,9.97
2019-04-11T12:44:05.722Z,11.33
2019-04-11T12:46:52.130Z,12.50
2019-04-11T12:49:25.091Z,10.00
2019-04-11T12:51:55.377Z,9.33
2019-04-11T12:54:25.585Z,9.43
2019-04-11T12:56:58.556Z,10.50
2019-04-11T12:59:27.205Z,10.67
2019-04-11T13:02:13.746Z,12.63
2019-04-11T13:04:44.337Z,13.03
2019-04-11T13:07:13.932Z,13.27
2019-04-11T13:09:47.051Z,10.53
2019-04-11T13:12:35.702Z,9.33
2019-04-11T13:15:10.222Z,11.33
2019-04-11T13:17:40.135Z,11.40
2019-04-11T13:20:10.635Z,9.63
2019-04-11T13:22:39.307Z,10.13
2019-04-11T13:25:25.819Z,11.37
2019-04-11T13:27:56.076Z,11.50
2019-04-11T13:30:35.358Z,12.90
2019-04-11T13:33:03.765Z,12.07
2019-04-11T13:35:39.814Z,13.30
2019-04-11T13:38:18.948Z,13.30
2019-04-11T13:40:49.163Z,11.17
2019-04-11T13:43:28.212Z,11.53
2019-04-11T13:46:14.768Z,11.80
2019-04-11T13:49:01.248Z,9.57
2019-04-11T13:51:31.468Z,9.70
2019-04-11T13:54:17.383Z,14.37
2019-04-11T13:57:03.786Z,13.63
2019-04-11T13:59:37.021Z,13.20
2019-04-11T14:02:16.640Z,13.43
2019-04-11T14:04:54.568Z,10.57
2019-04-11T14:07:27.890Z,10.57
2019-04-11T14:10:01.678Z,9.27
2019-04-11T14:12:30.177Z,10.50
2019-04-11T14:15:00.073Z,9.70
2019-04-11T14:17:46.430Z,9.20
2019-04-11T14:20:33.561Z,10.90
2019-04-11T14:23:03.378Z,9.37
2019-04-11T14:25:50.387Z,10.00
2019-04-11T14:28:20.597Z,10.43
2019-04-11T14:30:52.442Z,10.00
2019-04-11T14:33:23.564Z,7.53
2019-04-11T14:36:09.780Z,7.27
2019-04-11T14:38:46.590Z,8.97
2019-04-11T14:41:12.442Z,9.37
2019-04-11T14:43:48.754Z,9.30
2019-04-11T14:46:36.760Z,10.70
2019-04-11T14:49:05.833Z,10.30
2019-04-11T14:51:36.158Z,9.83
2019-04-11T14:54:11.689Z,10.50
2019-04-11T14:56:47.874Z,11.07
2019-04-11T14:59:35.023Z,10.67
2019-04-11T15:02:05.266Z,11.70
2019-04-11T15:04:51.711Z,8.57
2019-04-11T15:07:20.974Z,9.07
2019-04-11T15:10:09.545Z,9.27
2019-04-11T15:12:39.382Z,8.63
2019-04-11T15:15:12.224Z,10.93
2019-04-11T15:17:42.111Z,9.33
2019-04-11T15:20:14.129Z,9.80
2019-04-11T15:22:44.511Z,13.27
2019-04-11T15:25:14.710Z,11.13
2019-04-11T15:28:01.397Z,11.03
2019-04-11T15:30:31.627Z,9.40
2019-04-11T15:33:18.083Z,10.57
2019-04-11T15:35:48.366Z,10.70
2019-04-11T15:38:21.452Z,11.97
2019-04-11T15:40:51.719Z,9.27
2019-04-11T15:43:34.237Z,9.13
2019-04-11T15:46:04.063Z,9.07
2019-04-11T15:48:43.054Z,9.37
2019-04-11T15:51:16.169Z,10.00
2019-04-11T15:53:46.305Z,9.80
2019-04-11T15:56:33.175Z,10.53
2019-04-11T15:59:12.973Z,9.77
2019-04-11T16:01:41.581Z,10.37
2019-04-11T16:04:30.177Z,11.80
2019-04-11T16:07:12.154Z,9.33
2019-04-11T16:09:44.326Z,9.47
2019-04-11T16:12:26.526Z,9.13
2019-04-11T16:15:08.815Z,9.50
2019-04-11T16:17:57.768Z,9.77
2019-04-11T16:20:25.489Z,10.03
2019-04-11T16:22:56.008Z,9.87
2019-04-11T16:25:28.980Z,9.83
2019-04-11T16:28:02.076Z,9.03
2019-04-11T16:30:32.371Z,8.97
2019-04-11T16:33:08.231Z,9.57
2019-04-11T16:35:56.881Z,9.77
2019-04-11T16:38:26.518Z,10.90
2019-04-11T16:40:59.204Z,13.53
2019-04-11T16:43:27.806Z,9.03
2019-04-11T16:46:03.777Z,9.03
2019-04-11T16:48:32.208Z,11.03
2019-04-11T16:51:00.706Z,9.10
2019-04-11T16:53:28.914Z,10.60
2019-04-11T16:55:57.795Z,12.37
2019-04-11T16:58:26.377Z,10.27
2019-04-11T17:00:54.630Z,10.03
2019-04-11T17:03:25.069Z,9.23
2019-04-11T17:06:07.086Z,9.17
2019-04-11T17:08:56.459Z,20.30
2019-04-11T17:11:26.752Z,13.67
2019-04-11T17:13:57.064Z,12.40
2019-04-11T17:16:24.937Z,10.23
2019-04-11T17:18:53.438Z,10.23
2019-04-11T17:21:23.326Z,8.73
2019-04-11T17:23:52.046Z,9.57
2019-04-11T17:26:22.935Z,8.77
2019-04-11T17:28:53.555Z,9.40
2019-04-11T17:31:21.153Z,9.30
2019-04-11T17:33:50.730Z,7.97
2019-04-11T17:36:19.389Z,10.67
2019-04-11T17:38:47.973Z,10.83
2019-04-11T17:41:16.547Z,10.47
2019-04-11T17:43:47.040Z,11.63
2019-04-11T17:46:15.452Z,10.43
2019-04-11T17:48:43.720Z,8.97
2019-04-11T17:51:12.297Z,9.40
2019-04-11T17:53:40.985Z,10.30
2019-04-11T17:56:09.550Z,8.67
2019-04-11T17:58:38.147Z,10.63
2019-04-11T18:01:07.062Z,8.70
2019-04-11T18:03:35.607Z,12.27
2019-04-11T18:06:04.290Z,11.17
2019-04-11T18:08:32.865Z,10.93
2019-04-11T18:11:01.534Z,9.13
2019-04-11T18:13:31.577Z,9.70
2019-04-11T18:16:01.199Z,9.90
2019-04-11T18:18:30.244Z,9.70
2019-04-11T18:20:58.922Z,8.60
2019-04-11T18:23:27.170Z,10.77
2019-04-11T18:25:55.689Z,11.30
2019-04-11T18:28:24.186Z,14.03
2019-04-11T18:30:54.119Z,12.80
2019-04-11T18:33:23.995Z,9.77
2019-04-11T18:35:52.677Z,9.70
2019-04-11T18:38:20.847Z,7.43
2019-04-11T18:40:49.450Z,8.77
2019-04-11T18:43:18.098Z,9.43
2019-04-11T18:45:46.696Z,8.40
2019-04-11T18:48:15.326Z,8.10
2019-04-11T18:50:43.567Z,8.50
2019-04-11T18:53:12.157Z,9.43
2019-04-11T18:55:40.659Z,8.07
2019-04-11T18:58:09.286Z,7.93
2019-04-11T19:00:38.338Z,7.53
2019-04-11T19:03:08.002Z,8.33
2019-04-11T19:05:37.479Z,7.13
2019-04-11T19:08:05.732Z,8.40
2019-04-11T19:10:33.973Z,8.23
2019-04-11T19:13:02.666Z,6.73
2019-04-11T19:15:30.893Z,7.80
2019-04-11T19:18:06.120Z,7.63
2019-04-11T19:20:28.961Z,6.20
2019-04-11T19:22:57.538Z,11.22
2019-04-11T19:25:26.110Z,8.20
2019-04-11T19:27:55.324Z,7.87
2019-04-11T19:30:26.433Z,8.30
2019-04-11T19:32:54.952Z,8.73
2019-04-11T19:35:23.585Z,8.47
2019-04-11T19:37:52.149Z,10.17
2019-04-11T19:40:20.822Z,7.60
2019-04-11T19:42:49.851Z,8.17
2019-04-11T19:45:19.589Z,7.10
2019-04-11T19:47:51.555Z,6.53
2019-04-11T19:50:18.822Z,6.33
2019-04-11T19:52:47.324Z,6.27
2019-04-11T19:55:17.689Z,6.33
2019-04-11T19:57:45.933Z,6.50
2019-04-11T20:00:16.345Z,8.70
2019-04-11T20:02:44.909Z,7.20
2019-04-11T20:05:13.738Z,9.00
2019-04-11T20:07:42.322Z,8.77
2019-04-11T20:10:11.050Z,7.37
2019-04-11T20:12:39.313Z,6.43
2019-04-11T20:15:08.838Z,7.28
2019-04-11T20:17:44.241Z,8.73
2019-04-11T20:20:07.878Z,8.17
2019-04-11T20:22:39.419Z,8.33
2019-04-11T20:25:07.131Z,8.13
2019-04-11T20:27:35.745Z,6.87
2019-04-11T20:30:05.950Z,6.03
2019-04-11T20:32:34.610Z,5.27
2019-04-11T20:35:03.113Z,6.10
2019-04-11T20:37:39.177Z,8.47
2019-04-11T20:40:01.825Z,7.03
2019-04-11T20:42:30.696Z,6.40
2019-04-11T20:44:59.493Z,5.63
2019-04-11T20:47:29.511Z,5.47
2019-04-11T20:49:58.583Z,7.07
2019-04-11T20:52:27.602Z,6.20
2019-04-11T20:54:56.636Z,6.37
2019-04-11T20:57:26.356Z,5.63
2019-04-11T20:59:55.261Z,5.60
2019-04-11T21:02:28.178Z,7.03
2019-04-11T21:04:54.409Z,6.80
2019-04-11T21:07:23.162Z,5.87
2019-04-11T21:09:51.764Z,6.27
2019-04-11T21:12:20.655Z,5.70
2019-04-11T21:14:49.373Z,6.07
2019-04-11T21:17:18.122Z,4.83
2019-04-11T21:19:46.926Z,7.27
2019-04-11T21:22:15.650Z,7.83
2019-04-11T21:24:44.559Z,11.37
2019-04-11T21:27:13.054Z,5.33
2019-04-11T21:29:41.906Z,7.87
2019-04-11T21:32:10.798Z,4.80
2019-04-11T21:34:39.500Z,5.43
2019-04-11T21:37:08.012Z,5.67
2019-04-11T21:39:36.693Z,6.90
2019-04-11T21:42:06.138Z,5.63
2019-04-11T21:44:36.756Z,4.97
2019-04-11T21:47:07.372Z,5.33
2019-04-11T21:49:37.054Z,5.80
2019-04-11T21:52:12.073Z,6.00
2019-04-11T21:54:37.778Z,5.23
2019-04-11T21:57:06.696Z,6.13
2019-04-11T21:59:35.768Z,5.03
2019-04-11T22:02:06.885Z,8.43
2019-04-11T22:04:35.562Z,5.47
2019-04-11T22:07:04.347Z,8.20
2019-04-11T22:09:33.039Z,6.70
2019-04-11T22:12:02.775Z,6.13
2019-04-11T22:14:31.010Z,6.90
2019-04-11T22:16:59.780Z,5.60
2019-04-11T22:19:28.399Z,5.40
2019-04-11T22:21:57.105Z,7.90
2019-04-11T22:24:25.718Z,6.63
2019-04-11T22:26:56.776Z,6.23
2019-04-11T22:29:25.638Z,6.50
2019-04-11T22:31:56.063Z,6.27
2019-04-11T22:34:29.233Z,7.13
2019-04-11T22:36:59.999Z,7.47
2019-04-11T22:39:31.540Z,5.57
2019-04-11T22:41:59.954Z,6.27
2019-04-11T22:44:28.685Z,5.13
2019-04-11T22:46:57.336Z,6.03
2019-04-11T22:49:26.074Z,5.33
2019-04-11T22:51:54.690Z,6.20
2019-04-11T22:54:23.313Z,6.57
2019-04-11T22:56:52.250Z,8.53
2019-04-11T22:59:21.358Z,10.70
2019-04-11T23:01:52.062Z,5.97
2019-04-11T23:04:20.818Z,6.40
2019-04-11T23:06:49.107Z,6.30
2019-04-11T23:09:19.483Z,9.63
2019-04-11T23:11:48.284Z,5.80
2019-04-11T23:14:16.705Z,6.07
2019-04-11T23:16:45.914Z,5.60
2019-04-11T23:19:15.066Z,5.23
2019-04-11T23:21:43.902Z,6.43
2019-04-11T23:24:12.454Z,7.33
2019-04-11T23:26:41.021Z,5.63
2019-04-11T23:29:09.580Z,5.93
2019-04-11T23:31:38.168Z,5.47
2019-04-11T23:34:06.671Z,5.07
2019-04-11T23:36:35.269Z,5.80
2019-04-11T23:39:05.745Z,5.63
2019-04-11T23:41:34.261Z,4.67
2019-04-11T23:44:03.054Z,6.20
2019-04-11T23:46:31.614Z,5.97
2019-04-11T23:49:00.190Z,7.00
2019-04-11T23:51:28.778Z,6.40
2019-04-11T23:53:59.743Z,5.10
2019-04-11T23:56:28.180Z,5.20
2019-04-11T23:59:01.839Z,5.90
